sensor_id;sensor_type;location;lat;lon;timestamp;pressure;altitude;pressure_sealevel;temperature;humidity
21760;BME280;11041;50.854;20.580;2024-02-26T00:01:01;97835.59;;;3.57;100.00
21760;BME280;11041;50.854;20.580;2024-02-26T00:03:48;97833.75;;;3.52;100.00
21760;BME280;11041;50.854;20.580;2024-02-26T00:06:14;97833.22;;;3.50;100.00
21760;BME280;11041;50.854;20.580;2024-02-26T00:08:41;97825.16;;;3.45;100.00
21760;BME280;11041;50.854;20.580;2024-02-26T00:11:07;97832.25;;;3.41;100.00
21760;BME280;11041;50.854;20.580;2024-02-26T00:13:33;97827.41;;;3.38;100.00
21760;BME280;11041;50.854;20.580;2024-02-26T00:16:00;97832.63;;;3.34;100.00
21760;BME280;11041;50.854;20.580;2024-02-26T00:18:26;97826.94;;;3.31;100.00
21760;BME280;11041;50.854;20.580;2024-02-26T00:20:53;97825.91;;;3.27;100.00
21760;BME280;11041;50.854;20.580;2024-02-26T00:23:19;97823.50;;;3.25;100.00
21760;BME280;11041;50.854;20.580;2024-02-26T00:25:46;97829.28;;;3.18;100.00
21760;BME280;11041;50.854;20.580;2024-02-26T00:28:13;97823.31;;;3.16;100.00
21760;BME280;11041;50.854;20.580;2024-02-26T00:30:39;97816.84;;;3.12;100.00
21760;BME280;11041;50.854;20.580;2024-02-26T00:33:06;97818.75;;;3.12;100.00
21760;BME280;11041;50.854;20.580;2024-02-26T00:35:32;97819.06;;;3.10;100.00
21760;BME280;11041;50.854;20.580;2024-02-26T00:37:59;97818.22;;;3.10;100.00
21760;BME280;11041;50.854;20.580;2024-02-26T00:40:26;97815.81;;;3.08;100.00
21760;BME280;11041;50.854;20.580;2024-02-26T00:42:53;97815.81;;;3.08;100.00
21760;BME280;11041;50.854;20.580;2024-02-26T00:45:19;97806.84;;;3.08;100.00
21760;BME280;11041;50.854;20.580;2024-02-26T00:47:46;97810.41;;;3.08;100.00
21760;BME280;11041;50.854;20.580;2024-02-26T00:50:14;97818.75;;;3.12;100.00
21760;BME280;11041;50.854;20.580;2024-02-26T00:52:41;97818.41;;;3.18;100.00
21760;BME280;11041;50.854;20.580;2024-02-26T00:55:08;97809.41;;;3.23;100.00
21760;BME280;11041;50.854;20.580;2024-02-26T00:57:34;97809.84;;;3.30;100.00
21760;BME280;11041;50.854;20.580;2024-02-26T01:00:01;97817.13;;;3.35;100.00
21760;BME280;11041;50.854;20.580;2024-02-26T01:02:27;97825.22;;;3.40;100.00
21760;BME280;11041;50.854;20.580;2024-02-26T01:04:54;97821.91;;;3.43;100.00
21760;BME280;11041;50.854;20.580;2024-02-26T01:07:20;97820.00;;;3.44;100.00
21760;BME280;11041;50.854;20.580;2024-02-26T01:09:47;97818.16;;;3.39;100.00
21760;BME280;11041;50.854;20.580;2024-02-26T01:12:14;97831.22;;;3.37;100.00
21760;BME280;11041;50.854;20.580;2024-02-26T01:14:40;97824.75;;;3.33;100.00
21760;BME280;11041;50.854;20.580;2024-02-26T01:17:07;97815.28;;;3.30;100.00
21760;BME280;11041;50.854;20.580;2024-02-26T01:19:33;97813.16;;;3.27;100.00
21760;BME280;11041;50.854;20.580;2024-02-26T01:21:59;97818.06;;;3.25;100.00
21760;BME280;11041;50.854;20.580;2024-02-26T01:24:29;97815.09;;;3.22;100.00
21760;BME280;11041;50.854;20.580;2024-02-26T01:26:56;97809.16;;;3.19;100.00
21760;BME280;11041;50.854;20.580;2024-02-26T01:29:22;97814.59;;;3.19;100.00
21760;BME280;11041;50.854;20.580;2024-02-26T01:31:48;97818.94;;;3.20;100.00
21760;BME280;11041;50.854;20.580;2024-02-26T01:34:14;97818.63;;;3.22;100.00
21760;BME280;11041;50.854;20.580;2024-02-26T01:36:41;97814.84;;;3.23;100.00
21760;BME280;11041;50.854;20.580;2024-02-26T01:39:07;97818.59;;;3.27;100.00
21760;BME280;11041;50.854;20.580;2024-02-26T01:41:34;97820.72;;;3.30;100.00
21760;BME280;11041;50.854;20.580;2024-02-26T01:44:00;97814.19;;;3.31;100.00
21760;BME280;11041;50.854;20.580;2024-02-26T01:46:28;97817.19;;;3.30;100.00
21760;BME280;11041;50.854;20.580;2024-02-26T01:48:54;97815.88;;;3.27;100.00
21760;BME280;11041;50.854;20.580;2024-02-26T01:51:22;97819.66;;;3.26;100.00
21760;BME280;11041;50.854;20.580;2024-02-26T01:53:49;97813.19;;;3.22;100.00
21760;BME280;11041;50.854;20.580;2024-02-26T01:56:18;97811.34;;;3.17;100.00
21760;BME280;11041;50.854;20.580;2024-02-26T01:58:46;97806.28;;;3.11;100.00
21760;BME280;11041;50.854;20.580;2024-02-26T02:01:15;97816.63;;;3.09;100.00
21760;BME280;11041;50.854;20.580;2024-02-26T02:03:42;97813.66;;;3.05;100.00
21760;BME280;11041;50.854;20.580;2024-02-26T02:06:09;97807.75;;;3.03;100.00
21760;BME280;11041;50.854;20.580;2024-02-26T02:08:38;97807.22;;;3.01;100.00
21760;BME280;11041;50.854;20.580;2024-02-26T02:11:06;97804.56;;;2.96;100.00
21760;BME280;11041;50.854;20.580;2024-02-26T02:13:33;97804.03;;;2.94;100.00
21760;BME280;11041;50.854;20.580;2024-02-26T02:15:59;97808.16;;;2.91;100.00
21760;BME280;11041;50.854;20.580;2024-02-26T02:18:26;97808.69;;;2.88;100.00
21760;BME280;11041;50.854;20.580;2024-02-26T02:20:53;97813.91;;;2.85;100.00
21760;BME280;11041;50.854;20.580;2024-02-26T02:23:23;97811.25;;;2.80;100.00
21760;BME280;11041;50.854;20.580;2024-02-26T02:25:50;97810.19;;;2.75;100.00
21760;BME280;11041;50.854;20.580;2024-02-26T02:28:16;97810.84;;;2.67;100.00
21760;BME280;11041;50.854;20.580;2024-02-26T02:30:43;97816.31;;;2.62;100.00
21760;BME280;11041;50.854;20.580;2024-02-26T02:33:10;97817.16;;;2.58;100.00
21760;BME280;11041;50.854;20.580;2024-02-26T02:35:39;97818.03;;;2.53;100.00
21760;BME280;11041;50.854;20.580;2024-02-26T02:38:06;97811.53;;;2.49;100.00
21760;BME280;11041;50.854;20.580;2024-02-26T02:40:33;97818.88;;;2.48;100.00
21760;BME280;11041;50.854;20.580;2024-02-26T02:43:03;97811.53;;;2.49;100.00
21760;BME280;11041;50.854;20.580;2024-02-26T02:45:31;97819.69;;;2.49;100.00
21760;BME280;11041;50.854;20.580;2024-02-26T02:47:57;97810.97;;;2.52;100.00
21760;BME280;11041;50.854;20.580;2024-02-26T02:50:24;97818.03;;;2.53;100.00
21760;BME280;11041;50.854;20.580;2024-02-26T02:52:51;97810.97;;;2.52;100.00
21760;BME280;11041;50.854;20.580;2024-02-26T02:55:18;97810.97;;;2.52;100.00
21760;BME280;11041;50.854;20.580;2024-02-26T02:57:45;97810.97;;;2.52;100.00
21760;BME280;11041;50.854;20.580;2024-02-26T03:00:12;97816.69;;;2.50;100.00
21760;BME280;11041;50.854;20.580;2024-02-26T03:02:39;97817.50;;;2.51;100.00
21760;BME280;11041;50.854;20.580;2024-02-26T03:05:06;97815.38;;;2.48;100.00
21760;BME280;11041;50.854;20.580;2024-02-26T03:07:34;97814.84;;;2.46;100.00
21760;BME280;11041;50.854;20.580;2024-02-26T03:10:00;97820.81;;;2.43;100.00
21760;BME280;11041;50.854;20.580;2024-02-26T03:12:27;97816.53;;;2.37;100.00
21760;BME280;11041;50.854;20.580;2024-02-26T03:14:54;97823.34;;;2.34;100.00
21760;BME280;11041;50.854;20.580;2024-02-26T03:17:21;97814.41;;;2.33;100.00
21760;BME280;11041;50.854;20.580;2024-02-26T03:19:48;97812.78;;;2.32;100.00
21760;BME280;11041;50.854;20.580;2024-02-26T03:22:19;97813.31;;;2.34;100.00
21760;BME280;11041;50.854;20.580;2024-02-26T03:24:48;97808.16;;;2.33;100.00
21760;BME280;11041;50.854;20.580;2024-02-26T03:27:14;97813.06;;;2.31;100.00
21760;BME280;11041;50.854;20.580;2024-02-26T03:29:41;97808.47;;;2.31;100.00
21760;BME280;11041;50.854;20.580;2024-02-26T03:32:08;97817.66;;;2.30;100.00
21760;BME280;11041;50.854;20.580;2024-02-26T03:34:35;97806.28;;;2.28;100.00
21760;BME280;11041;50.854;20.580;2024-02-26T03:37:03;97803.88;;;2.27;100.00
21760;BME280;11041;50.854;20.580;2024-02-26T03:39:32;97811.22;;;2.26;100.00
21760;BME280;11041;50.854;20.580;2024-02-26T03:41:59;97805.25;;;2.24;100.00
21760;BME280;11041;50.854;20.580;2024-02-26T03:44:25;97800.69;;;2.20;100.00
21760;BME280;11041;50.854;20.580;2024-02-26T03:46:53;97789.91;;;2.15;100.00
21760;BME280;11041;50.854;20.580;2024-02-26T03:49:19;97797.25;;;2.09;100.00
21760;BME280;11041;50.854;20.580;2024-02-26T03:51:46;97789.69;;;2.06;100.00
21760;BME280;11041;50.854;20.580;2024-02-26T03:54:15;97794.03;;;2.02;100.00
21760;BME280;11041;50.854;20.580;2024-02-26T03:56:41;97793.53;;;2.00;100.00
21760;BME280;11041;50.854;20.580;2024-02-26T03:59:11;97792.72;;;1.99;100.00
21760;BME280;11041;50.854;20.580;2024-02-26T04:01:45;97794.38;;;1.95;100.00
21760;BME280;11041;50.854;20.580;2024-02-26T04:04:16;97796.56;;;1.93;100.00
21760;BME280;11041;50.854;20.580;2024-02-26T04:06:48;97790.88;;;1.89;100.00
21760;BME280;11041;50.854;20.580;2024-02-26T04:09:20;97793.06;;;1.87;100.00
21760;BME280;11041;50.854;20.580;2024-02-26T04:11:49;97790.69;;;1.81;100.00
21760;BME280;11041;50.854;20.580;2024-02-26T04:14:20;97792.06;;;1.78;100.00
21760;BME280;11041;50.854;20.580;2024-02-26T04:16:50;97791.81;;;1.75;100.00
21760;BME280;11041;50.854;20.580;2024-02-26T04:19:21;97794.78;;;1.73;100.00
21760;BME280;11041;50.854;20.580;2024-02-26T04:21:47;97792.38;;;1.72;100.00
21760;BME280;11041;50.854;20.580;2024-02-26T04:24:19;97795.34;;;1.70;100.00
21760;BME280;11041;50.854;20.580;2024-02-26T04:26:49;97793.22;;;1.67;100.00
21760;BME280;11041;50.854;20.580;2024-02-26T04:29:18;97796.47;;;1.69;100.00
21760;BME280;11041;50.854;20.580;2024-02-26T04:31:50;97795.94;;;1.67;100.00
21760;BME280;11041;50.854;20.580;2024-02-26T04:34:20;97788.88;;;1.66;100.00
21760;BME280;11041;50.854;20.580;2024-02-26T04:36:50;97796.72;;;1.67;100.00
21760;BME280;11041;50.854;20.580;2024-02-26T04:39:17;97787.81;;;1.67;100.00
21760;BME280;11041;50.854;20.580;2024-02-26T04:41:49;97793.50;;;1.65;100.00
21760;BME280;11041;50.854;20.580;2024-02-26T04:44:19;97791.88;;;1.64;100.00
21760;BME280;11041;50.854;20.580;2024-02-26T04:46:52;97792.44;;;1.61;100.00
21760;BME280;11041;50.854;20.580;2024-02-26T04:49:20;97786.22;;;1.61;100.00
21760;BME280;11041;50.854;20.580;2024-02-26T04:51:49;97789.97;;;1.65;100.00
21760;BME280;11041;50.854;20.580;2024-02-26T04:54:18;97791.00;;;1.74;100.00
21760;BME280;11041;50.854;20.580;2024-02-26T04:56:45;97783.59;;;1.85;100.00
21760;BME280;11041;50.854;20.580;2024-02-26T04:59:14;97785.97;;;1.97;100.00
21760;BME280;11041;50.854;20.580;2024-02-26T05:01:42;97788.03;;;2.10;100.00
21760;BME280;11041;50.854;20.580;2024-02-26T05:04:10;97790.91;;;2.24;100.00
21760;BME280;11041;50.854;20.580;2024-02-26T05:06:37;97789.38;;;2.42;100.00
21760;BME280;11041;50.854;20.580;2024-02-26T05:09:04;97791.13;;;2.56;100.00
21760;BME280;11041;50.854;20.580;2024-02-26T05:11:32;97788.50;;;2.75;100.00
21760;BME280;11041;50.854;20.580;2024-02-26T05:13:59;97789.88;;;2.97;100.00
21760;BME280;11041;50.854;20.580;2024-02-26T05:16:30;97792.13;;;3.14;100.00
21760;BME280;11041;50.854;20.580;2024-02-26T05:19:03;97787.34;;;3.30;100.00
21760;BME280;11041;50.854;20.580;2024-02-26T05:21:29;97795.03;;;3.41;100.00
21760;BME280;11041;50.854;20.580;2024-02-26T05:23:56;97786.97;;;3.55;100.00
21760;BME280;11041;50.854;20.580;2024-02-26T05:26:24;97789.78;;;3.69;100.00
21760;BME280;11041;50.854;20.580;2024-02-26T05:28:53;97793.97;;;3.80;100.00
21760;BME280;11041;50.854;20.580;2024-02-26T05:31:20;97785.38;;;3.92;100.00
21760;BME280;11041;50.854;20.580;2024-02-26T05:33:49;97791.16;;;4.04;100.00
21760;BME280;11041;50.854;20.580;2024-02-26T05:36:21;97786.59;;;4.19;100.00
21760;BME280;11041;50.854;20.580;2024-02-26T05:38:50;97796.06;;;4.35;100.00
21760;BME280;11041;50.854;20.580;2024-02-26T05:41:18;97796.91;;;4.49;100.00
21760;BME280;11041;50.854;20.580;2024-02-26T05:43:55;97800.19;;;4.65;100.00
21760;BME280;11041;50.854;20.580;2024-02-26T05:46:26;97811.09;;;4.79;100.00
21760;BME280;11041;50.854;20.580;2024-02-26T05:48:53;97805.16;;;4.91;100.00
21760;BME280;11041;50.854;20.580;2024-02-26T05:51:20;97802.44;;;5.05;100.00
21760;BME280;11041;50.854;20.580;2024-02-26T05:53:47;97810.63;;;5.19;100.00
21760;BME280;11041;50.854;20.580;2024-02-26T05:56:24;97808.97;;;5.31;100.00
21760;BME280;11041;50.854;20.580;2024-02-26T05:58:53;97815.34;;;5.41;100.00
21760;BME280;11041;50.854;20.580;2024-02-26T06:01:20;97811.59;;;5.50;100.00
21760;BME280;11041;50.854;20.580;2024-02-26T06:03:49;97815.72;;;5.62;100.00
21760;BME280;11041;50.854;20.580;2024-02-26T06:06:16;97812.59;;;5.68;100.00
21760;BME280;11041;50.854;20.580;2024-02-26T06:08:45;97812.34;;;5.79;100.00
21760;BME280;11041;50.854;20.580;2024-02-26T06:11:11;97817.06;;;5.87;100.00
21760;BME280;11041;50.854;20.580;2024-02-26T06:13:42;97815.84;;;5.93;100.00
21760;BME280;11041;50.854;20.580;2024-02-26T06:16:11;97821.72;;;6.00;100.00
21760;BME280;11041;50.854;20.580;2024-02-26T06:18:37;97824.81;;;6.07;100.00
21760;BME280;11041;50.854;20.580;2024-02-26T06:21:04;97819.25;;;6.12;100.00
21760;BME280;11041;50.854;20.580;2024-02-26T06:23:37;97833.25;;;6.19;100.00
21760;BME280;11041;50.854;20.580;2024-02-26T06:26:04;97839.72;;;6.24;100.00
21760;BME280;11041;50.854;20.580;2024-02-26T06:28:31;97830.00;;;6.31;100.00
21760;BME280;11041;50.854;20.580;2024-02-26T06:31:02;97841.56;;;6.37;100.00
21760;BME280;11041;50.854;20.580;2024-02-26T06:33:29;97839.53;;;6.43;100.00
21760;BME280;11041;50.854;20.580;2024-02-26T06:35:55;97838.13;;;6.45;100.00
21760;BME280;11041;50.854;20.580;2024-02-26T06:38:23;97839.72;;;6.46;100.00
21760;BME280;11041;50.854;20.580;2024-02-26T06:40:50;97846.34;;;6.54;100.00
21760;BME280;11041;50.854;20.580;2024-02-26T06:43:17;97847.03;;;6.59;100.00
21760;BME280;11041;50.854;20.580;2024-02-26T06:45:44;97845.28;;;6.64;100.00
21760;BME280;11041;50.854;20.580;2024-02-26T06:48:12;97852.25;;;6.70;100.00
21760;BME280;11041;50.854;20.580;2024-02-26T06:50:38;97852.09;;;6.75;100.00
21760;BME280;11041;50.854;20.580;2024-02-26T06:53:04;97855.22;;;6.82;100.00
21760;BME280;11041;50.854;20.580;2024-02-26T06:55:40;97861.84;;;6.90;100.00
21760;BME280;11041;50.854;20.580;2024-02-26T06:58:07;97866.19;;;6.91;100.00
21760;BME280;11041;50.854;20.580;2024-02-26T07:00:35;97868.59;;;6.92;100.00
21760;BME280;11041;50.854;20.580;2024-02-26T07:03:02;97858.00;;;6.91;100.00
21760;BME280;11041;50.854;20.580;2024-02-26T07:05:31;97865.06;;;6.92;100.00
21760;BME280;11041;50.854;20.580;2024-02-26T07:07:59;97872.31;;;6.96;100.00
21760;BME280;11041;50.854;20.580;2024-02-26T07:10:27;97873.91;;;6.97;100.00
21760;BME280;11041;50.854;20.580;2024-02-26T07:12:59;97887.28;;;6.99;100.00
21760;BME280;11041;50.854;20.580;2024-02-26T07:15:30;97879.06;;;6.99;100.00
21760;BME280;11041;50.854;20.580;2024-02-26T07:17:57;97885.19;;;7.04;100.00
21760;BME280;11041;50.854;20.580;2024-02-26T07:20:31;97889.13;;;7.12;100.00
21760;BME280;11041;50.854;20.580;2024-02-26T07:22:58;97885.91;;;7.19;100.00
21760;BME280;11041;50.854;20.580;2024-02-26T07:25:26;97888.03;;;7.22;100.00
21760;BME280;11041;50.854;20.580;2024-02-26T07:27:53;97889.84;;;7.27;100.00
21760;BME280;11041;50.854;20.580;2024-02-26T07:30:22;97883.44;;;7.31;100.00
21760;BME280;11041;50.854;20.580;2024-02-26T07:32:54;97885.53;;;7.34;100.00
21760;BME280;11041;50.854;20.580;2024-02-26T07:35:20;97891.66;;;7.40;100.00
21760;BME280;11041;50.854;20.580;2024-02-26T07:37:48;97881.72;;;7.44;100.00
21760;BME280;11041;50.854;20.580;2024-02-26T07:40:18;97885.88;;;7.50;100.00
21760;BME280;11041;50.854;20.580;2024-02-26T07:42:45;97887.38;;;7.56;100.00
21760;BME280;11041;50.854;20.580;2024-02-26T07:45:13;97893.00;;;7.60;100.00
21760;BME280;11041;50.854;20.580;2024-02-26T07:47:42;97889.66;;;7.63;100.00
21760;BME280;11041;50.854;20.580;2024-02-26T07:50:09;97889.50;;;7.68;100.00
21760;BME280;11041;50.854;20.580;2024-02-26T07:52:40;97887.41;;;7.74;100.00
21760;BME280;11041;50.854;20.580;2024-02-26T07:55:08;97887.75;;;7.81;100.00
21760;BME280;11041;50.854;20.580;2024-02-26T07:57:35;97879.91;;;7.88;100.00
21760;BME280;11041;50.854;20.580;2024-02-26T08:00:06;97883.28;;;7.94;100.00
21760;BME280;11041;50.854;20.580;2024-02-26T08:02:36;97890.22;;;8.00;100.00
21760;BME280;11041;50.854;20.580;2024-02-26T08:05:03;97876.88;;;8.07;100.00
21760;BME280;11041;50.854;20.580;2024-02-26T08:07:29;97880.44;;;8.16;100.00
21760;BME280;11041;50.854;20.580;2024-02-26T08:09:56;97880.75;;;8.23;100.00
21760;BME280;11041;50.854;20.580;2024-02-26T08:12:23;97881.72;;;8.27;100.00
21760;BME280;11041;50.854;20.580;2024-02-26T08:14:49;97884.81;;;8.35;100.00
21760;BME280;11041;50.854;20.580;2024-02-26T08:17:16;97885.13;;;8.42;100.00
21760;BME280;11041;50.854;20.580;2024-02-26T08:19:45;97890.13;;;8.48;100.00
21760;BME280;11041;50.854;20.580;2024-02-26T08:22:13;97881.28;;;8.51;100.00
21760;BME280;11041;50.854;20.580;2024-02-26T08:24:42;97884.66;;;8.57;100.00
21760;BME280;11041;50.854;20.580;2024-02-26T08:27:11;97875.78;;;8.60;100.00
21760;BME280;11041;50.854;20.580;2024-02-26T08:29:38;97880.16;;;8.61;100.00
21760;BME280;11041;50.854;20.580;2024-02-26T08:32:06;97884.00;;;8.60;100.00
21760;BME280;11041;50.854;20.580;2024-02-26T08:34:35;97887.53;;;8.61;100.00
21760;BME280;11041;50.854;20.580;2024-02-26T08:37:02;97878.88;;;8.59;100.00
21760;BME280;11041;50.854;20.580;2024-02-26T08:39:29;97881.13;;;8.57;100.00
21760;BME280;11041;50.854;20.580;2024-02-26T08:41:55;97884.34;;;8.59;100.00
21760;BME280;11041;50.854;20.580;2024-02-26T08:44:22;97880.94;;;8.62;100.00
21760;BME280;11041;50.854;20.580;2024-02-26T08:46:49;97878.03;;;8.67;100.00
21760;BME280;11041;50.854;20.580;2024-02-26T08:49:16;97886.09;;;8.72;100.00
21760;BME280;11041;50.854;20.580;2024-02-26T08:51:44;97882.84;;;8.79;100.00
21760;BME280;11041;50.854;20.580;2024-02-26T08:54:14;97887.38;;;8.83;100.00
21760;BME280;11041;50.854;20.580;2024-02-26T08:56:40;97892.66;;;8.88;100.00
21760;BME280;11041;50.854;20.580;2024-02-26T08:59:08;97903.78;;;8.92;100.00
21760;BME280;11041;50.854;20.580;2024-02-26T09:01:36;97898.47;;;8.95;100.00
21760;BME280;11041;50.854;20.580;2024-02-26T09:04:02;97898.13;;;8.97;100.00
21760;BME280;11041;50.854;20.580;2024-02-26T09:06:32;97888.47;;;9.00;100.00
21760;BME280;11041;50.854;20.580;2024-02-26T09:09:00;97880.38;;;9.03;100.00
21760;BME280;11041;50.854;20.580;2024-02-26T09:11:29;97878.63;;;9.07;100.00
21760;BME280;11041;50.854;20.580;2024-02-26T09:13:55;97878.91;;;9.14;100.00
21760;BME280;11041;50.854;20.580;2024-02-26T09:16:22;97886.28;;;9.23;100.00
21760;BME280;11041;50.854;20.580;2024-02-26T09:18:50;97888.66;;;9.33;100.00
21760;BME280;11041;50.854;20.580;2024-02-26T09:21:17;97875.25;;;9.40;100.00
21760;BME280;11041;50.854;20.580;2024-02-26T09:23:50;97878.47;;;9.51;100.00
21760;BME280;11041;50.854;20.580;2024-02-26T09:26:17;97880.50;;;9.63;100.00
21760;BME280;11041;50.854;20.580;2024-02-26T09:28:47;97874.94;;;9.71;100.00
21760;BME280;11041;50.854;20.580;2024-02-26T09:31:15;97869.91;;;9.82;100.00
21760;BME280;11041;50.854;20.580;2024-02-26T09:33:42;97871.78;;;9.90;100.00
21760;BME280;11041;50.854;20.580;2024-02-26T09:36:10;97876.09;;;10.00;100.00
21760;BME280;11041;50.854;20.580;2024-02-26T09:38:37;97873.78;;;10.11;100.00
21760;BME280;11041;50.854;20.580;2024-02-26T09:41:05;97881.13;;;10.19;100.00
21760;BME280;11041;50.854;20.580;2024-02-26T09:43:35;97879.97;;;10.29;100.00
21760;BME280;11041;50.854;20.580;2024-02-26T09:46:10;97878.16;;;10.33;100.00
21760;BME280;11041;50.854;20.580;2024-02-26T09:48:43;97869.72;;;10.38;100.00
21760;BME280;11041;50.854;20.580;2024-02-26T09:51:12;97885.66;;;10.44;100.00
21760;BME280;11041;50.854;20.580;2024-02-26T09:53:43;97894.16;;;10.52;100.00
21760;BME280;11041;50.854;20.580;2024-02-26T09:56:15;97888.47;;;10.57;100.00
21760;BME280;11041;50.854;20.580;2024-02-26T09:58:44;97885.50;;;10.62;100.00
21760;BME280;11041;50.854;20.580;2024-02-26T10:01:18;97887.25;;;10.66;100.00
21760;BME280;11041;50.854;20.580;2024-02-26T10:03:49;97887.50;;;10.74;100.00
21760;BME280;11041;50.854;20.580;2024-02-26T10:06:18;97885.22;;;10.76;99.78
21760;BME280;11041;50.854;20.580;2024-02-26T10:08:47;97881.94;;;10.82;99.59
21760;BME280;11041;50.854;20.580;2024-02-26T10:11:14;97879.31;;;10.86;99.17
21760;BME280;11041;50.854;20.580;2024-02-26T10:13:41;97891.56;;;10.88;98.99
21760;BME280;11041;50.854;20.580;2024-02-26T10:16:10;97882.63;;;10.92;98.25
21760;BME280;11041;50.854;20.580;2024-02-26T10:18:51;97880.25;;;10.90;97.63
21760;BME280;11041;50.854;20.580;2024-02-26T10:21:21;97890.44;;;10.90;97.26
21760;BME280;11041;50.854;20.580;2024-02-26T10:23:51;97885.59;;;10.86;96.97
21760;BME280;11041;50.854;20.580;2024-02-26T10:26:18;97895.31;;;10.84;96.41
21760;BME280;11041;50.854;20.580;2024-02-26T10:28:46;97893.25;;;10.81;96.71
21760;BME280;11041;50.854;20.580;2024-02-26T10:31:14;97883.75;;;10.78;96.76
21760;BME280;11041;50.854;20.580;2024-02-26T10:33:44;97884.56;;;10.79;97.10
21760;BME280;11041;50.854;20.580;2024-02-26T10:36:12;97879.84;;;10.79;97.46
21760;BME280;11041;50.854;20.580;2024-02-26T10:38:38;97879.19;;;10.82;97.79
21760;BME280;11041;50.854;20.580;2024-02-26T10:41:15;97879.31;;;10.86;97.57
21760;BME280;11041;50.854;20.580;2024-02-26T10:43:42;97874.75;;;10.90;97.77
21760;BME280;11041;50.854;20.580;2024-02-26T10:46:14;97863.06;;;10.93;98.02
21760;BME280;11041;50.854;20.580;2024-02-26T10:48:50;97870.16;;;10.94;97.43
21760;BME280;11041;50.854;20.580;2024-02-26T10:51:28;97868.91;;;10.92;97.07
21760;BME280;11041;50.854;20.580;2024-02-26T10:54:01;97867.31;;;10.91;97.53
21760;BME280;11041;50.854;20.580;2024-02-26T10:56:34;97858.25;;;10.90;97.72
21760;BME280;11041;50.854;20.580;2024-02-26T10:59:05;97862.97;;;10.90;97.76
21760;BME280;11041;50.854;20.580;2024-02-26T11:01:35;97869.25;;;10.90;98.55
21760;BME280;11041;50.854;20.580;2024-02-26T11:04:04;97864.56;;;10.91;98.45
21760;BME280;11041;50.854;20.580;2024-02-26T11:06:35;97867.78;;;10.93;98.35
21760;BME280;11041;50.854;20.580;2024-02-26T11:09:06;97863.53;;;10.95;98.82
21760;BME280;11041;50.854;20.580;2024-02-26T11:11:36;97860.09;;;10.98;98.67
21760;BME280;11041;50.854;20.580;2024-02-26T11:14:03;97863.31;;;11.00;98.33
21760;BME280;11041;50.854;20.580;2024-02-26T11:16:33;97858.63;;;11.01;98.09
21760;BME280;11041;50.854;20.580;2024-02-26T11:19:02;97857.03;;;11.00;98.07
21760;BME280;11041;50.854;20.580;2024-02-26T11:21:29;97853.13;;;11.01;98.14
21760;BME280;11041;50.854;20.580;2024-02-26T11:24:07;97847.63;;;11.01;98.43
21760;BME280;11041;50.854;20.580;2024-02-26T11:26:42;97842.25;;;11.04;98.56
21760;BME280;11041;50.854;20.580;2024-02-26T11:29:14;97850.75;;;11.12;99.17
21760;BME280;11041;50.854;20.580;2024-02-26T11:31:42;97853.28;;;11.17;98.83
21760;BME280;11041;50.854;20.580;2024-02-26T11:34:12;97852.38;;;11.25;99.45
21760;BME280;11041;50.854;20.580;2024-02-26T11:36:39;97853.41;;;11.33;98.63
21760;BME280;11041;50.854;20.580;2024-02-26T11:39:06;97855.25;;;11.41;98.63
21760;BME280;11041;50.854;20.580;2024-02-26T11:41:36;97856.63;;;11.47;97.94
21760;BME280;11041;50.854;20.580;2024-02-26T11:44:05;97843.47;;;11.52;97.91
21760;BME280;11041;50.854;20.580;2024-02-26T11:46:41;97843.34;;;11.61;97.54
21760;BME280;11041;50.854;20.580;2024-02-26T11:51:55;97835.44;;;11.72;96.97
21760;BME280;11041;50.854;20.580;2024-02-26T11:57:37;97834.25;;;11.85;96.41
21760;BME280;11041;50.854;20.580;2024-02-26T12:02:43;97841.50;;;12.02;96.14
21760;BME280;11041;50.854;20.580;2024-02-26T12:07:49;97841.03;;;12.12;95.08
21760;BME280;11041;50.854;20.580;2024-02-26T12:10:22;97834.34;;;12.26;95.64
21760;BME280;11041;50.854;20.580;2024-02-26T12:12:58;97831.75;;;12.45;95.82
21760;BME280;11041;50.854;20.580;2024-02-26T12:15:31;97833.75;;;12.61;92.60
21760;BME280;11041;50.854;20.580;2024-02-26T12:18:05;97829.19;;;12.81;92.03
21760;BME280;11041;50.854;20.580;2024-02-26T12:20:32;97832.66;;;12.93;90.56
21760;BME280;11041;50.854;20.580;2024-02-26T12:22:58;97834.22;;;13.07;88.04
21760;BME280;11041;50.854;20.580;2024-02-26T12:25:29;97827.44;;;13.20;87.35
21760;BME280;11041;50.854;20.580;2024-02-26T12:27:57;97827.06;;;13.34;87.47
21760;BME280;11041;50.854;20.580;2024-02-26T12:30:27;97831.84;;;13.53;87.53
21760;BME280;11041;50.854;20.580;2024-02-26T12:32:58;97834.84;;;13.63;85.07
21760;BME280;11041;50.854;20.580;2024-02-26T12:35:29;97836.09;;;13.66;83.21
21760;BME280;11041;50.854;20.580;2024-02-26T12:37:58;97835.13;;;13.74;84.13
21760;BME280;11041;50.854;20.580;2024-02-26T12:40:26;97836.88;;;13.82;84.05
21760;BME280;11041;50.854;20.580;2024-02-26T12:42:54;97831.47;;;13.86;83.95
21760;BME280;11041;50.854;20.580;2024-02-26T12:45:25;97833.94;;;13.91;83.23
21760;BME280;11041;50.854;20.580;2024-02-26T12:47:56;97834.00;;;13.95;83.09
21760;BME280;11041;50.854;20.580;2024-02-26T12:50:25;97837.22;;;13.97;83.05
21760;BME280;11041;50.854;20.580;2024-02-26T12:52:53;97840.41;;;13.99;82.93
21760;BME280;11041;50.854;20.580;2024-02-26T12:55:21;97838.09;;;14.01;83.27
21760;BME280;11041;50.854;20.580;2024-02-26T12:57:51;97829.88;;;14.04;83.13
21760;BME280;11041;50.854;20.580;2024-02-26T13:00:27;97835.16;;;14.10;83.23
21760;BME280;11041;50.854;20.580;2024-02-26T13:02:55;97830.47;;;14.14;82.37
21760;BME280;11041;50.854;20.580;2024-02-26T13:05:24;97837.34;;;14.20;82.40
21760;BME280;11041;50.854;20.580;2024-02-26T13:07:53;97842.13;;;14.23;81.96